Time;durP1;ratioP1;P1;durP2;ratioP2;P2;SDS_P1;SDS_P2;PMS_P1;PMS_P2;Temp;Humidity;BMP_temperature;BMP_pressure;BME280_temperature;BME280_humidity;BME280_pressure;Samples;Min_cycle;Max_cycle;Signal;HPM_P1;HPM_P2
2023/01/27 00:00:56;;;;;;;;;;;5.10;99.90;;;;;;5030900;28;20274;-70
2023/01/27 00:03:22;;;;;;;;;;;5.10;99.90;;;;;;5030148;28;19962;-69
2023/01/27 00:05:48;;;;;;;;;;;5.20;99.90;;;;;;5029738;28;19917;-69
2023/01/27 00:08:17;;;;;;;;;;;5.20;99.90;;;;;;5027238;28;19923;-70
2023/01/27 00:10:42;;;;;;;;;;;5.20;99.90;;;;;;5029679;28;19913;-70
2023/01/27 00:13:27;;;;;;;;;;;5.10;99.90;;;;;;5026490;28;19909;-70
2023/01/27 00:15:52;;;;;;;;;;;5.10;99.90;;;;;;5030079;28;19909;-70
2023/01/27 00:18:18;;;;;;;;;;;5.10;99.90;;;;;;5026794;28;19916;-69
2023/01/27 00:26:16;;;;;;;;;;;5.10;99.90;;;;;;5030214;28;20375;-70
2023/01/27 00:28:43;;;;;;;;;;;5.10;99.90;;;;;;5017707;28;19909;-69
2023/01/27 00:34:00;;;;;;;;;;;5.20;99.90;;;;;;5028506;28;20400;-69
2023/01/27 00:36:29;;;;;;;;;;;5.20;99.90;;;;;;5023910;28;19920;-70
2023/01/27 00:38:54;;;;;;;;;;;5.10;99.90;;;;;;5026643;28;19913;-69
2023/01/27 00:41:21;;;;;;;;;;;5.10;99.90;;;;;;5021447;28;19962;-69
2023/01/27 00:43:50;;;;;;;;;;;5.10;99.90;;;;;;5028841;28;20383;-70
2023/01/27 00:46:17;;;;;;;;;;;5.10;99.90;;;;;;5020709;28;19998;-69
2023/01/27 00:48:43;;;;;;;;;;;5.10;99.90;;;;;;5029267;28;19992;-69
2023/01/27 00:51:09;;;;;;;;;;;5.10;99.90;;;;;;5029023;28;20483;-70
2023/01/27 00:53:35;;;;;;;;;;;5.10;99.90;;;;;;5023499;28;19913;-70
2023/01/27 00:56:00;;;;;;;;;;;5.10;99.90;;;;;;5025544;28;20292;-69
2023/01/27 00:58:26;;;;;;;;;;;5.10;99.90;;;;;;5029130;28;19940;-69
2023/01/27 01:00:56;;;;;;;;;;;5.10;99.90;;;;;;5028866;28;19909;-69
2023/01/27 01:03:21;;;;;;;;;;;5.10;99.90;;;;;;5025161;28;19909;-70
2023/01/27 01:05:47;;;;;;;;;;;5.10;99.90;;;;;;5030710;28;19909;-71
2023/01/27 01:08:13;;;;;;;;;;;5.10;99.90;;;;;;5026931;28;20289;-69
2023/01/27 01:10:39;;;;;;;;;;;5.10;99.90;;;;;;5024468;28;19916;-69
2023/01/27 01:13:06;;;;;;;;;;;5.10;99.90;;;;;;5027974;28;20320;-70
2023/01/27 01:15:39;;;;;;;;;;;5.10;99.90;;;;;;5024130;28;19909;-69
2023/01/27 01:18:05;;;;;;;;;;;5.10;99.90;;;;;;5028669;28;19913;-70
2023/01/27 01:20:37;;;;;;;;;;;5.10;99.90;;;;;;5030923;28;20365;-69
2023/01/27 01:23:05;;;;;;;;;;;5.10;99.90;;;;;;5029368;28;20004;-69
2023/01/27 01:25:31;;;;;;;;;;;5.00;99.90;;;;;;5022448;28;19916;-70
2023/01/27 01:27:57;;;;;;;;;;;5.10;99.90;;;;;;5027292;28;19939;-70
2023/01/27 01:30:25;;;;;;;;;;;5.00;99.90;;;;;;5016444;28;19909;-70
2023/01/27 01:32:51;;;;;;;;;;;5.00;99.90;;;;;;5025417;28;19920;-70
2023/01/27 01:35:17;;;;;;;;;;;5.00;99.90;;;;;;5025745;28;19941;-70
2023/01/27 01:37:43;;;;;;;;;;;5.10;99.90;;;;;;5026268;28;19913;-70
2023/01/27 01:40:12;;;;;;;;;;;5.10;99.90;;;;;;5021263;28;20243;-69
2023/01/27 01:42:51;;;;;;;;;;;5.00;99.90;;;;;;5043280;28;20405;-69
2023/01/27 01:45:32;;;;;;;;;;;5.10;99.90;;;;;;5023148;28;20011;-68
2023/01/27 01:47:59;;;;;;;;;;;5.10;99.90;;;;;;5035003;28;19909;-68
2023/01/27 01:50:25;;;;;;;;;;;5.10;99.90;;;;;;5021903;28;19913;-68
2023/01/27 01:52:53;;;;;;;;;;;5.10;99.90;;;;;;5028407;28;19920;-69
2023/01/27 01:55:19;;;;;;;;;;;5.10;99.90;;;;;;5025694;28;19916;-68
2023/01/27 01:57:48;;;;;;;;;;;5.10;99.90;;;;;;5029393;28;20264;-70
2023/01/27 02:00:15;;;;;;;;;;;5.10;99.90;;;;;;5022812;28;20020;-70
2023/01/27 02:02:42;;;;;;;;;;;5.10;99.90;;;;;;5023129;28;20373;-70
2023/01/27 02:05:15;;;;;;;;;;;5.10;99.90;;;;;;5019413;28;19915;-69
2023/01/27 02:07:41;;;;;;;;;;;5.10;99.90;;;;;;5028989;28;19909;-71
2023/01/27 02:10:06;;;;;;;;;;;5.00;99.90;;;;;;5024209;28;20284;-69
2023/01/27 02:12:32;;;;;;;;;;;5.00;99.90;;;;;;5023892;28;20393;-69
2023/01/27 02:14:57;;;;;;;;;;;5.00;99.90;;;;;;5024608;28;19963;-70
2023/01/27 02:17:23;;;;;;;;;;;5.10;99.90;;;;;;5027016;28;19909;-70
2023/01/27 02:20:07;;;;;;;;;;;5.00;99.90;;;;;;5027238;28;20353;-69
2023/01/27 02:22:58;;;;;;;;;;;5.00;99.90;;;;;;5016617;28;19945;-69
2023/01/27 02:25:31;;;;;;;;;;;5.00;99.90;;;;;;5019833;28;19909;-70
2023/01/27 02:27:59;;;;;;;;;;;5.00;99.90;;;;;;5014187;28;19914;-69
2023/01/27 02:30:26;;;;;;;;;;;5.00;99.90;;;;;;5035250;28;20373;-69
2023/01/27 02:32:52;;;;;;;;;;;5.00;99.90;;;;;;5027134;28;19913;-69
2023/01/27 02:35:22;;;;;;;;;;;5.00;99.90;;;;;;5023355;28;19996;-69
2023/01/27 02:37:48;;;;;;;;;;;5.00;99.90;;;;;;5025543;28;20015;-69
2023/01/27 02:40:15;;;;;;;;;;;5.00;99.90;;;;;;5026665;28;19913;-69
2023/01/27 02:42:40;;;;;;;;;;;5.00;99.90;;;;;;5026553;28;19909;-69
2023/01/27 02:45:06;;;;;;;;;;;5.00;99.90;;;;;;5020908;28;19971;-69
2023/01/27 02:47:32;;;;;;;;;;;5.00;99.90;;;;;;5027088;28;19909;-69
2023/01/27 02:49:57;;;;;;;;;;;5.00;99.90;;;;;;5024849;28;20403;-70
2023/01/27 02:52:23;;;;;;;;;;;5.00;99.90;;;;;;5020828;28;19917;-70
2023/01/27 02:54:48;;;;;;;;;;;5.00;99.90;;;;;;5018322;28;19909;-69
2023/01/27 02:57:14;;;;;;;;;;;5.00;99.90;;;;;;5022181;28;20092;-70
2023/01/27 02:59:39;;;;;;;;;;;5.00;99.90;;;;;;5026840;28;19913;-70
2023/01/27 03:02:05;;;;;;;;;;;5.00;99.90;;;;;;5025528;28;20387;-70
2023/01/27 03:04:31;;;;;;;;;;;5.00;99.90;;;;;;5029546;28;19944;-70
2023/01/27 03:06:57;;;;;;;;;;;5.00;99.90;;;;;;5025528;28;19995;-70
2023/01/27 03:09:22;;;;;;;;;;;5.00;99.90;;;;;;5024939;28;19909;-69
2023/01/27 03:20:01;;;;;;;;;;;5.00;99.90;;;;;;5020860;28;19917;-68
2023/01/27 03:22:27;;;;;;;;;;;5.00;99.90;;;;;;5022066;28;20017;-69
2023/01/27 03:24:53;;;;;;;;;;;5.00;99.90;;;;;;5026465;28;19968;-70
2023/01/27 03:27:19;;;;;;;;;;;5.00;99.90;;;;;;5011928;28;19913;-69
2023/01/27 03:29:54;;;;;;;;;;;5.00;99.90;;;;;;5032254;28;19913;-69
2023/01/27 03:32:20;;;;;;;;;;;4.90;99.90;;;;;;5023101;28;19924;-69
2023/01/27 03:34:45;;;;;;;;;;;4.90;99.90;;;;;;5037882;28;19913;-70
2023/01/27 03:48:08;;;;;;;;;;;4.80;99.90;;;;;;5019804;28;19916;-69
2023/01/27 03:50:42;;;;;;;;;;;4.70;99.90;;;;;;5024000;28;19909;-68
2023/01/27 03:53:08;;;;;;;;;;;4.70;99.90;;;;;;5026239;28;20390;-69
2023/01/27 03:55:35;;;;;;;;;;;4.70;99.90;;;;;;5021785;28;19909;-68
2023/01/27 03:58:18;;;;;;;;;;;4.70;99.90;;;;;;5023748;28;20003;-69
2023/01/27 04:01:00;;;;;;;;;;;4.70;99.90;;;;;;5021926;28;19960;-69
2023/01/27 04:08:59;;;;;;;;;;;4.70;99.90;;;;;;5017834;28;19999;-69
2023/01/27 04:14:10;;;;;;;;;;;4.80;99.90;;;;;;5018279;28;20348;-70
2023/01/27 04:16:36;;;;;;;;;;;4.70;99.90;;;;;;5012533;28;20262;-69
2023/01/27 04:19:03;;;;;;;;;;;4.70;99.90;;;;;;5016300;28;19948;-68
2023/01/27 04:21:29;;;;;;;;;;;4.70;99.90;;;;;;5013388;28;19936;-69
2023/01/27 04:23:55;;;;;;;;;;;4.70;99.90;;;;;;5025781;28;20321;-68
2023/01/27 04:26:20;;;;;;;;;;;4.70;99.90;;;;;;5013289;28;19917;-68
2023/01/27 04:28:46;;;;;;;;;;;4.70;99.90;;;;;;5019039;28;20007;-69
2023/01/27 04:31:13;;;;;;;;;;;4.70;99.90;;;;;;5019406;28;19914;-69
2023/01/27 04:33:39;;;;;;;;;;;4.70;99.90;;;;;;5013031;28;19913;-69
2023/01/27 04:36:04;;;;;;;;;;;4.70;99.90;;;;;;5022100;28;19914;-69
2023/01/27 04:38:30;;;;;;;;;;;4.70;99.90;;;;;;5016635;28;19909;-69
2023/01/27 04:40:56;;;;;;;;;;;4.70;99.90;;;;;;5023207;28;20059;-69
2023/01/27 04:43:21;;;;;;;;;;;4.60;99.90;;;;;;5037962;22;19928;-70
2023/01/27 04:45:47;;;;;;;;;;;4.60;99.90;;;;;;5035032;28;19913;-71
2023/01/27 04:48:18;;;;;;;;;;;4.70;99.90;;;;;;5013891;28;19909;-71
2023/01/27 04:50:44;;;;;;;;;;;4.60;99.90;;;;;;5031020;28;20002;-70
2023/01/27 04:53:10;;;;;;;;;;;4.60;99.90;;;;;;5026728;28;19960;-71
2023/01/27 04:55:36;;;;;;;;;;;4.60;99.90;;;;;;5017544;28;19909;-70
2023/01/27 04:58:02;;;;;;;;;;;4.70;99.90;;;;;;5023169;28;19909;-70
2023/01/27 05:00:28;;;;;;;;;;;4.60;99.90;;;;;;5018537;28;20269;-71
2023/01/27 05:02:54;;;;;;;;;;;4.70;99.90;;;;;;5033222;28;19913;-70
2023/01/27 05:05:19;;;;;;;;;;;4.60;99.90;;;;;;5024384;28;19909;-70
2023/01/27 05:07:45;;;;;;;;;;;4.60;99.90;;;;;;5027938;28;20008;-70
2023/01/27 05:10:10;;;;;;;;;;;4.60;99.90;;;;;;5021070;28;20034;-70
2023/01/27 05:12:36;;;;;;;;;;;4.70;99.90;;;;;;5022785;28;19956;-71
2023/01/27 05:15:02;;;;;;;;;;;4.70;99.90;;;;;;5016249;28;19909;-70
2023/01/27 05:17:33;;;;;;;;;;;4.70;99.90;;;;;;5025723;28;20012;-70
2023/01/27 05:19:59;;;;;;;;;;;4.70;99.90;;;;;;5024695;28;19909;-70
2023/01/27 05:22:24;;;;;;;;;;;4.70;99.90;;;;;;5024851;28;20000;-70
2023/01/27 05:24:50;;;;;;;;;;;4.70;99.90;;;;;;5020348;28;20292;-70
2023/01/27 05:27:16;;;;;;;;;;;4.70;99.90;;;;;;5021897;28;19910;-69
2023/01/27 05:29:42;;;;;;;;;;;4.70;99.90;;;;;;5028754;28;19943;-69
2023/01/27 05:32:07;;;;;;;;;;;4.70;99.90;;;;;;5022076;28;20369;-70
2023/01/27 05:34:33;;;;;;;;;;;4.70;99.90;;;;;;5024520;28;19974;-70
2023/01/27 05:36:59;;;;;;;;;;;4.70;99.90;;;;;;5023657;28;19932;-70
2023/01/27 05:39:25;;;;;;;;;;;4.70;99.90;;;;;;5016769;28;20353;-69
2023/01/27 05:41:50;;;;;;;;;;;4.70;99.90;;;;;;5026109;28;19931;-70
2023/01/27 05:44:17;;;;;;;;;;;4.60;99.90;;;;;;5019104;28;20080;-71
2023/01/27 05:46:43;;;;;;;;;;;4.70;99.90;;;;;;5015594;28;20485;-69
2023/01/27 05:49:08;;;;;;;;;;;4.70;99.90;;;;;;5027344;28;19940;-69
2023/01/27 05:51:35;;;;;;;;;;;4.60;99.90;;;;;;5023087;28;19924;-69
2023/01/27 05:54:01;;;;;;;;;;;4.60;99.90;;;;;;5026569;28;20312;-69
2023/01/27 05:56:27;;;;;;;;;;;4.60;99.90;;;;;;5024978;28;19912;-69
2023/01/27 05:58:57;;;;;;;;;;;4.60;99.90;;;;;;5019158;28;19967;-70
2023/01/27 06:01:24;;;;;;;;;;;4.60;99.90;;;;;;5014541;28;19909;-69
2023/01/27 06:03:50;;;;;;;;;;;4.60;99.90;;;;;;5015522;28;19909;-70
2023/01/27 06:06:17;;;;;;;;;;;4.60;99.90;;;;;;5019261;28;19933;-71
2023/01/27 06:08:48;;;;;;;;;;;4.60;99.90;;;;;;5024701;28;19910;-70
2023/01/27 06:11:18;;;;;;;;;;;4.60;99.90;;;;;;5018854;28;19974;-69
2023/01/27 06:13:44;;;;;;;;;;;4.60;99.90;;;;;;5020996;28;19909;-70
2023/01/27 06:16:12;;;;;;;;;;;4.70;99.90;;;;;;5027670;28;19909;-70
2023/01/27 06:18:40;;;;;;;;;;;4.60;99.90;;;;;;5025886;28;19909;-70
2023/01/27 06:21:07;;;;;;;;;;;4.70;99.90;;;;;;5027633;28;19916;-70
2023/01/27 06:23:33;;;;;;;;;;;4.70;99.90;;;;;;5026503;28;19909;-69
2023/01/27 06:26:03;;;;;;;;;;;4.70;99.90;;;;;;5023586;28;19931;-69
2023/01/27 06:28:30;;;;;;;;;;;4.70;99.90;;;;;;5026252;28;19909;-70
2023/01/27 06:30:56;;;;;;;;;;;4.70;99.90;;;;;;5021050;28;19929;-70
2023/01/27 06:33:21;;;;;;;;;;;4.70;99.90;;;;;;5025500;28;19908;-70
2023/01/27 06:35:47;;;;;;;;;;;4.70;99.90;;;;;;5022186;28;19916;-70
2023/01/27 06:38:14;;;;;;;;;;;4.70;99.90;;;;;;5021129;28;19955;-70
2023/01/27 06:40:40;;;;;;;;;;;4.70;99.90;;;;;;5026097;28;19916;-70
2023/01/27 06:43:13;;;;;;;;;;;4.70;99.90;;;;;;5022311;28;20009;-70
2023/01/27 06:45:39;;;;;;;;;;;4.70;99.90;;;;;;5029570;28;19913;-70
2023/01/27 06:48:07;;;;;;;;;;;4.70;99.90;;;;;;5022601;28;19913;-70
2023/01/27 06:50:33;;;;;;;;;;;4.80;99.90;;;;;;5026655;28;19916;-69
2023/01/27 06:53:00;;;;;;;;;;;4.80;99.90;;;;;;5020290;28;19917;-69
2023/01/27 06:55:26;;;;;;;;;;;4.80;99.90;;;;;;5027804;28;19917;-70
2023/01/27 06:57:52;;;;;;;;;;;4.80;99.90;;;;;;5027735;28;20352;-70
2023/01/27 07:00:18;;;;;;;;;;;4.80;99.90;;;;;;5025587;28;20000;-71
2023/01/27 07:02:43;;;;;;;;;;;4.80;99.90;;;;;;5027812;28;20281;-71
2023/01/27 07:05:09;;;;;;;;;;;4.80;99.90;;;;;;5027609;28;20281;-71
2023/01/27 07:07:35;;;;;;;;;;;4.80;99.90;;;;;;5026239;28;19913;-70
2023/01/27 07:10:00;;;;;;;;;;;4.90;99.90;;;;;;5023837;28;19916;-69
2023/01/27 07:12:26;;;;;;;;;;;4.90;99.90;;;;;;5026942;28;19921;-71
2023/01/27 07:14:52;;;;;;;;;;;4.90;99.90;;;;;;5024823;28;19932;-70
2023/01/27 07:17:17;;;;;;;;;;;4.90;99.90;;;;;;5025542;28;19917;-70
2023/01/27 07:19:43;;;;;;;;;;;5.00;99.90;;;;;;5029119;28;19976;-69
2023/01/27 07:22:08;;;;;;;;;;;4.90;99.90;;;;;;5017493;28;19909;-69
2023/01/27 07:24:34;;;;;;;;;;;5.00;99.90;;;;;;5023492;28;20378;-69
2023/01/27 07:26:59;;;;;;;;;;;4.90;99.90;;;;;;5019959;28;20269;-69
2023/01/27 07:29:25;;;;;;;;;;;5.00;99.90;;;;;;5021280;28;20404;-69
2023/01/27 07:31:50;;;;;;;;;;;5.00;99.90;;;;;;5024867;28;19921;-69
2023/01/27 07:34:16;;;;;;;;;;;5.00;99.90;;;;;;5021136;28;19910;-69
2023/01/27 07:36:42;;;;;;;;;;;5.00;99.90;;;;;;5016966;28;20323;-69
2023/01/27 07:39:07;;;;;;;;;;;5.00;99.90;;;;;;5023438;28;19909;-69
2023/01/27 07:41:33;;;;;;;;;;;4.90;99.90;;;;;;5022744;28;19923;-68
2023/01/27 07:43:58;;;;;;;;;;;4.90;99.90;;;;;;5020333;28;20053;-69
2023/01/27 07:46:24;;;;;;;;;;;5.00;99.90;;;;;;5013855;28;19909;-69
2023/01/27 07:48:49;;;;;;;;;;;5.00;99.90;;;;;;5027201;28;19909;-69
2023/01/27 07:51:15;;;;;;;;;;;5.10;99.90;;;;;;5022876;28;19964;-69
2023/01/27 07:53:41;;;;;;;;;;;5.10;99.90;;;;;;5020246;28;19975;-70
2023/01/27 07:56:13;;;;;;;;;;;5.10;99.90;;;;;;5022380;28;19916;-69
2023/01/27 07:58:38;;;;;;;;;;;5.10;99.90;;;;;;5026855;28;20005;-70
2023/01/27 08:01:08;;;;;;;;;;;5.10;99.90;;;;;;5025440;28;19948;-69
2023/01/27 08:03:34;;;;;;;;;;;5.10;99.90;;;;;;5022166;28;19913;-69
2023/01/27 08:06:07;;;;;;;;;;;5.10;99.90;;;;;;5023627;28;19929;-70
2023/01/27 08:08:32;;;;;;;;;;;5.00;99.90;;;;;;5021977;28;20411;-69
2023/01/27 08:11:01;;;;;;;;;;;4.90;99.90;;;;;;5019517;28;19925;-70
2023/01/27 08:13:27;;;;;;;;;;;4.90;99.90;;;;;;5027776;28;19925;-70
2023/01/27 08:15:58;;;;;;;;;;;4.90;99.90;;;;;;5031550;28;20015;-68
2023/01/27 08:18:24;;;;;;;;;;;4.90;99.90;;;;;;5029246;28;19917;-70
2023/01/27 08:20:51;;;;;;;;;;;4.90;99.90;;;;;;5029676;28;20376;-68
2023/01/27 08:23:17;;;;;;;;;;;5.00;99.90;;;;;;5028722;28;19909;-69
2023/01/27 08:25:48;;;;;;;;;;;4.90;99.90;;;;;;5031548;28;19909;-69
2023/01/27 08:28:14;;;;;;;;;;;4.90;99.90;;;;;;5029423;28;19908;-70
2023/01/27 08:30:39;;;;;;;;;;;5.00;99.90;;;;;;5031994;28;20431;-71
2023/01/27 08:33:05;;;;;;;;;;;5.00;99.90;;;;;;5028965;28;20329;-70
2023/01/27 08:35:30;;;;;;;;;;;4.80;99.90;;;;;;5032017;28;19999;-68
2023/01/27 08:37:56;;;;;;;;;;;4.80;99.90;;;;;;5032234;28;19909;-68
2023/01/27 08:40:21;;;;;;;;;;;4.80;99.90;;;;;;5030592;28;20011;-69
2023/01/27 08:42:49;;;;;;;;;;;4.70;99.90;;;;;;5026928;28;19915;-69
2023/01/27 08:45:14;;;;;;;;;;;4.60;99.90;;;;;;5027646;28;20011;-68
2023/01/27 08:47:40;;;;;;;;;;;4.60;99.90;;;;;;5026044;28;19992;-69
2023/01/27 08:50:06;;;;;;;;;;;4.60;99.90;;;;;;5026868;28;19924;-69
2023/01/27 08:52:31;;;;;;;;;;;4.50;99.90;;;;;;5027025;28;20058;-69
2023/01/27 08:54:57;;;;;;;;;;;4.40;99.90;;;;;;5026766;28;20404;-70
2023/01/27 08:57:24;;;;;;;;;;;4.50;99.90;;;;;;5027543;28;19916;-69
2023/01/27 08:59:49;;;;;;;;;;;4.40;99.90;;;;;;5028263;28;19909;-68
2023/01/27 09:02:15;;;;;;;;;;;4.50;99.90;;;;;;5025601;28;20396;-69
2023/01/27 09:04:43;;;;;;;;;;;4.40;99.90;;;;;;5028188;28;19912;-69
2023/01/27 09:07:08;;;;;;;;;;;4.50;99.90;;;;;;5024898;28;19935;-68
2023/01/27 09:09:34;;;;;;;;;;;4.40;99.90;;;;;;5028624;28;20047;-68
2023/01/27 09:12:00;;;;;;;;;;;4.40;99.90;;;;;;5019823;28;19962;-72
2023/01/27 09:14:25;;;;;;;;;;;4.40;99.90;;;;;;5027940;28;20039;-70
2023/01/27 09:16:51;;;;;;;;;;;4.40;99.90;;;;;;5026574;28;20246;-69
2023/01/27 09:19:16;;;;;;;;;;;4.50;99.90;;;;;;5024500;28;19909;-69
2023/01/27 09:21:42;;;;;;;;;;;4.50;99.90;;;;;;5028650;28;19928;-68
2023/01/27 09:24:07;;;;;;;;;;;4.50;99.90;;;;;;5025972;28;19909;-69
2023/01/27 09:26:33;;;;;;;;;;;4.50;99.90;;;;;;5026006;28;20423;-69
2023/01/27 09:28:58;;;;;;;;;;;4.50;99.90;;;;;;5022657;28;20360;-69
2023/01/27 09:31:24;;;;;;;;;;;4.50;99.90;;;;;;5024010;28;20270;-70
2023/01/27 09:33:49;;;;;;;;;;;4.60;99.90;;;;;;5025320;28;19909;-68
2023/01/27 09:36:20;;;;;;;;;;;4.70;99.90;;;;;;5024226;28;20377;-69
2023/01/27 09:38:48;;;;;;;;;;;4.70;99.90;;;;;;5026779;28;19913;-69
2023/01/27 09:41:20;;;;;;;;;;;4.70;99.90;;;;;;5024515;28;19967;-69
2023/01/27 09:43:46;;;;;;;;;;;4.80;99.90;;;;;;5026380;28;19921;-69
2023/01/27 09:46:26;;;;;;;;;;;4.90;99.90;;;;;;5024928;28;19916;-69
2023/01/27 09:48:52;;;;;;;;;;;4.90;99.90;;;;;;5027517;28;20225;-70
2023/01/27 09:51:33;;;;;;;;;;;5.00;99.90;;;;;;5027375;28;20831;-68
2023/01/27 09:54:26;;;;;;;;;;;5.10;99.90;;;;;;5025530;28;19938;-69
2023/01/27 09:56:56;;;;;;;;;;;5.30;99.90;;;;;;5026391;28;19912;-68
2023/01/27 09:59:41;;;;;;;;;;;5.30;99.90;;;;;;5026107;28;19916;-69
2023/01/27 10:02:25;;;;;;;;;;;5.30;99.90;;;;;;5025010;28;19916;-69
2023/01/27 10:04:51;;;;;;;;;;;5.30;99.90;;;;;;5017190;28;19979;-69
2023/01/27 10:07:25;;;;;;;;;;;5.30;99.90;;;;;;5021254;28;20357;-69
2023/01/27 10:10:03;;;;;;;;;;;5.30;99.90;;;;;;5019206;28;19909;-70
2023/01/27 10:12:32;;;;;;;;;;;5.30;99.90;;;;;;5012255;28;20011;-69
2023/01/27 10:14:57;;;;;;;;;;;5.40;99.90;;;;;;5016188;28;19913;-69
2023/01/27 10:17:32;;;;;;;;;;;5.40;99.90;;;;;;5026069;28;19916;-68
2023/01/27 10:20:10;;;;;;;;;;;5.40;99.90;;;;;;5025420;28;20010;-69
2023/01/27 10:22:55;;;;;;;;;;;5.40;99.90;;;;;;5023682;28;19913;-69
2023/01/27 10:25:28;;;;;;;;;;;5.50;99.90;;;;;;5021207;28;20023;-70
2023/01/27 10:27:57;;;;;;;;;;;5.80;99.90;;;;;;5024624;28;19952;-70
2023/01/27 10:30:33;;;;;;;;;;;6.00;99.90;;;;;;5022643;28;19909;-71
2023/01/27 10:33:10;;;;;;;;;;;6.00;99.90;;;;;;5023412;28;19917;-68
2023/01/27 10:36:02;;;;;;;;;;;6.10;99.90;;;;;;5022486;28;19955;-69
2023/01/27 10:38:28;;;;;;;;;;;6.20;99.90;;;;;;5022851;28;19916;-69
2023/01/27 10:40:53;;;;;;;;;;;6.30;99.90;;;;;;5022604;28;19983;-69
2023/01/27 10:43:44;;;;;;;;;;;6.30;99.90;;;;;;5024777;28;19967;-70
2023/01/27 10:46:28;;;;;;;;;;;6.40;99.90;;;;;;5020685;28;20325;-69
2023/01/27 10:49:00;;;;;;;;;;;6.50;99.90;;;;;;5020077;28;20376;-69
2023/01/27 10:51:31;;;;;;;;;;;6.50;99.90;;;;;;5019920;28;20003;-69
2023/01/27 10:53:57;;;;;;;;;;;6.50;99.90;;;;;;5025048;28;19916;-69
2023/01/27 10:56:41;;;;;;;;;;;6.50;99.90;;;;;;5021092;28;19912;-68
2023/01/27 10:59:09;;;;;;;;;;;6.60;99.90;;;;;;5024893;28;19913;-70
2023/01/27 11:01:38;;;;;;;;;;;6.60;99.90;;;;;;5023522;28;19915;-70
2023/01/27 11:04:22;;;;;;;;;;;6.60;99.90;;;;;;5024443;28;19963;-70
2023/01/27 11:06:48;;;;;;;;;;;6.80;99.90;;;;;;5022664;28;19909;-70
2023/01/27 11:09:34;;;;;;;;;;;7.00;99.90;;;;;;5022630;28;19913;-69
2023/01/27 11:12:02;;;;;;;;;;;7.30;99.90;;;;;;5022438;28;19923;-68
2023/01/27 11:14:40;;;;;;;;;;;7.50;99.90;;;;;;5025231;28;19920;-69
2023/01/27 11:17:19;;;;;;;;;;;7.70;99.90;;;;;;5024751;28;19912;-69
2023/01/27 11:20:03;;;;;;;;;;;7.90;99.90;;;;;;5024335;28;20430;-69
2023/01/27 11:22:49;;;;;;;;;;;8.10;99.90;;;;;;5019307;28;20019;-69
2023/01/27 11:25:26;;;;;;;;;;;8.20;99.90;;;;;;5021813;28;19916;-69
2023/01/27 11:28:01;;;;;;;;;;;8.10;99.90;;;;;;5025476;28;20396;-70
2023/01/27 11:30:32;;;;;;;;;;;8.10;99.90;;;;;;5018608;28;19952;-69
2023/01/27 11:33:08;;;;;;;;;;;8.30;99.90;;;;;;5028614;28;19917;-68
2023/01/27 11:35:33;;;;;;;;;;;8.40;99.90;;;;;;5027588;28;19932;-67
2023/01/27 11:37:59;;;;;;;;;;;8.50;99.90;;;;;;5018473;28;20357;-68
2023/01/27 11:40:32;;;;;;;;;;;8.70;99.90;;;;;;5028780;28;19963;-70
2023/01/27 11:42:59;;;;;;;;;;;8.80;99.90;;;;;;5022741;28;20981;-70
2023/01/27 11:45:26;;;;;;;;;;;9.20;99.90;;;;;;5029584;28;19944;-69
2023/01/27 11:47:55;;;;;;;;;;;9.20;99.90;;;;;;5028856;28;20400;-68
2023/01/27 11:50:22;;;;;;;;;;;9.60;99.90;;;;;;5026374;28;20400;-69
2023/01/27 11:52:49;;;;;;;;;;;10.10;99.90;;;;;;5028952;28;19923;-68
2023/01/27 11:55:17;;;;;;;;;;;10.10;99.90;;;;;;5024937;28;19913;-68
2023/01/27 11:57:45;;;;;;;;;;;10.20;99.90;;;;;;5025215;28;19918;-68
2023/01/27 12:00:17;;;;;;;;;;;10.50;99.90;;;;;;5019755;28;20285;-69
2023/01/27 12:02:46;;;;;;;;;;;10.50;99.90;;;;;;5028743;28;20267;-69
2023/01/27 12:05:20;;;;;;;;;;;10.70;99.90;;;;;;5023307;28;19952;-69
2023/01/27 12:07:51;;;;;;;;;;;10.90;99.90;;;;;;5024375;28;20245;-69
2023/01/27 12:10:22;;;;;;;;;;;11.20;99.90;;;;;;5027119;28;19909;-68
2023/01/27 12:12:48;;;;;;;;;;;11.40;99.90;;;;;;5027153;28;20309;-69
2023/01/27 12:15:14;;;;;;;;;;;11.10;99.90;;;;;;5025290;28;19916;-68
2023/01/27 12:17:41;;;;;;;;;;;10.70;99.90;;;;;;5024466;28;19909;-68
2023/01/27 12:20:23;;;;;;;;;;;10.40;99.90;;;;;;5026602;28;19909;-69
2023/01/27 12:22:51;;;;;;;;;;;10.30;99.90;;;;;;5027679;28;19909;-68
2023/01/27 12:25:27;;;;;;;;;;;10.20;99.90;;;;;;5026917;28;19927;-68
2023/01/27 12:27:55;;;;;;;;;;;10.30;99.90;;;;;;5025178;28;20451;-68
2023/01/27 12:30:22;;;;;;;;;;;10.40;99.90;;;;;;5026827;28;19970;-69
2023/01/27 12:32:48;;;;;;;;;;;10.50;99.90;;;;;;5027823;28;19963;-68
2023/01/27 12:35:20;;;;;;;;;;;10.70;99.90;;;;;;5022060;28;19917;-69
2023/01/27 12:37:46;;;;;;;;;;;11.00;99.90;;;;;;5025140;28;19912;-68
2023/01/27 12:40:19;;;;;;;;;;;11.40;99.90;;;;;;5025915;28;19917;-69
2023/01/27 12:42:51;;;;;;;;;;;11.50;99.90;;;;;;5026061;28;19909;-68
2023/01/27 12:45:28;;;;;;;;;;;12.00;99.90;;;;;;5026939;28;19960;-69
2023/01/27 12:47:55;;;;;;;;;;;12.20;99.90;;;;;;5022797;28;20043;-70
2023/01/27 12:50:22;;;;;;;;;;;12.60;99.90;;;;;;5027584;28;19913;-70
2023/01/27 12:53:03;;;;;;;;;;;13.20;99.90;;;;;;5027732;28;19917;-69
2023/01/27 12:55:31;;;;;;;;;;;13.30;99.90;;;;;;5024510;28;20257;-69
2023/01/27 12:57:57;;;;;;;;;;;13.80;99.90;;;;;;5027001;28;20400;-69
2023/01/27 13:00:24;;;;;;;;;;;14.40;99.90;;;;;;5024088;28;20432;-68
2023/01/27 13:02:50;;;;;;;;;;;14.70;99.00;;;;;;5027501;28;20076;-69
2023/01/27 13:05:16;;;;;;;;;;;13.60;98.10;;;;;;5024489;28;19913;-69
2023/01/27 13:07:51;;;;;;;;;;;12.50;99.90;;;;;;5027109;28;19909;-69
2023/01/27 13:10:20;;;;;;;;;;;11.70;99.90;;;;;;5023277;28;19955;-68
2023/01/27 13:12:48;;;;;;;;;;;10.60;99.90;;;;;;5026865;28;19921;-69
2023/01/27 13:15:15;;;;;;;;;;;10.70;99.90;;;;;;5024833;28;19909;-69
2023/01/27 13:17:45;;;;;;;;;;;10.70;99.90;;;;;;5029165;28;19909;-69
2023/01/27 13:20:16;;;;;;;;;;;11.30;99.90;;;;;;5022104;28;19992;-68
2023/01/27 13:23:05;;;;;;;;;;;12.00;99.90;;;;;;5027835;28;20003;-69
2023/01/27 13:25:38;;;;;;;;;;;12.50;99.90;;;;;;5024289;28;20222;-69
2023/01/27 13:28:05;;;;;;;;;;;12.80;99.90;;;;;;5027631;28;20054;-68
2023/01/27 13:30:35;;;;;;;;;;;13.30;99.90;;;;;;5026465;28;20372;-68
2023/01/27 13:33:27;;;;;;;;;;;12.80;99.90;;;;;;5028549;28;19921;-68
2023/01/27 13:36:21;;;;;;;;;;;11.90;99.90;;;;;;5014421;28;19971;-69
2023/01/27 13:38:59;;;;;;;;;;;11.00;99.90;;;;;;4980368;28;19925;-69
2023/01/27 13:41:30;;;;;;;;;;;10.90;99.90;;;;;;4972136;28;19948;-67
2023/01/27 13:44:12;;;;;;;;;;;11.70;99.90;;;;;;4976443;28;19921;-69
2023/01/27 13:46:38;;;;;;;;;;;12.50;99.90;;;;;;4962052;28;20371;-69
2023/01/27 13:49:30;;;;;;;;;;;13.10;98.10;;;;;;4967665;28;19920;-69
2023/01/27 13:51:56;;;;;;;;;;;12.90;97.70;;;;;;4968230;28;20401;-68
2023/01/27 13:54:22;;;;;;;;;;;13.00;96.80;;;;;;4965891;28;19957;-68
2023/01/27 13:57:00;;;;;;;;;;;12.40;97.00;;;;;;4970602;28;19910;-68
2023/01/27 13:59:45;;;;;;;;;;;11.60;98.40;;;;;;4973799;28;19909;-68
2023/01/27 14:02:22;;;;;;;;;;;11.00;98.60;;;;;;4967493;28;19909;-69
2023/01/27 14:04:50;;;;;;;;;;;10.30;99.90;;;;;;4972278;28;20000;-69
2023/01/27 14:07:24;;;;;;;;;;;9.80;99.90;;;;;;4966507;28;19921;-68
2023/01/27 14:09:59;;;;;;;;;;;9.50;99.90;;;;;;4967288;28;19910;-69
2023/01/27 14:12:25;;;;;;;;;;;9.30;99.90;;;;;;4964753;28;19946;-68
2023/01/27 14:15:02;;;;;;;;;;;9.20;99.90;;;;;;4980500;28;19965;-68
2023/01/27 14:17:28;;;;;;;;;;;9.30;99.90;;;;;;5014189;28;19991;-69
2023/01/27 14:19:53;;;;;;;;;;;9.40;99.90;;;;;;5025912;28;20352;-69
2023/01/27 14:22:26;;;;;;;;;;;9.90;99.90;;;;;;5028113;28;19945;-69
2023/01/27 14:24:55;;;;;;;;;;;10.20;99.90;;;;;;5029575;28;19964;-68
2023/01/27 14:27:34;;;;;;;;;;;10.20;99.90;;;;;;5126872;27;19919;-68
2023/01/27 14:30:09;;;;;;;;;;;9.80;99.90;;;;;;5107174;28;20346;-67
2023/01/27 14:32:42;;;;;;;;;;;9.50;99.90;;;;;;5111727;28;20068;-69
2023/01/27 14:35:39;;;;;;;;;;;9.20;99.90;;;;;;5101585;28;20284;-68
2023/01/27 14:38:11;;;;;;;;;;;9.10;99.90;;;;;;5070580;28;20049;-68
2023/01/27 14:40:39;;;;;;;;;;;8.90;99.90;;;;;;5107201;28;20291;-68
2023/01/27 14:43:13;;;;;;;;;;;8.90;99.90;;;;;;5101849;28;19921;-69
2023/01/27 14:45:42;;;;;;;;;;;8.90;99.90;;;;;;5089751;28;19934;-69
2023/01/27 14:48:21;;;;;;;;;;;9.00;99.90;;;;;;5106299;28;20368;-69
2023/01/27 14:50:46;;;;;;;;;;;8.90;99.90;;;;;;5105019;28;19912;-69
2023/01/27 14:53:30;;;;;;;;;;;8.80;99.90;;;;;;5102446;28;19927;-69
2023/01/27 14:55:59;;;;;;;;;;;8.70;99.90;;;;;;5114390;28;19916;-69
2023/01/27 14:58:24;;;;;;;;;;;8.60;99.90;;;;;;5104812;28;21458;-69
2023/01/27 15:01:09;;;;;;;;;;;8.40;99.90;;;;;;5113067;28;19998;-68
2023/01/27 15:03:50;;;;;;;;;;;8.50;99.90;;;;;;5102907;28;19919;-69
2023/01/27 15:06:21;;;;;;;;;;;8.40;99.90;;;;;;5103867;28;19927;-70
2023/01/27 15:09:05;;;;;;;;;;;8.80;99.90;;;;;;5113476;28;19918;-70
2023/01/27 15:11:48;;;;;;;;;;;9.80;99.90;;;;;;5111791;28;20374;-68
2023/01/27 15:14:23;;;;;;;;;;;9.90;99.90;;;;;;5105666;28;19915;-68
2023/01/27 15:16:48;;;;;;;;;;;10.20;99.90;;;;;;5114436;28;20382;-69